createdAt,value
2022-12-16T00:01:45.784Z,5.10
2022-12-16T00:04:13.176Z,4.69
2022-12-16T00:06:40.051Z,5.13
2022-12-16T00:09:06.976Z,5.12
2022-12-16T00:11:34.063Z,5.15
2022-12-16T00:14:01.829Z,5.16
2022-12-16T00:16:29.225Z,4.97
2022-12-16T00:18:56.351Z,4.62
2022-12-16T00:21:28.829Z,5.08
2022-12-16T00:23:57.559Z,4.18
2022-12-16T00:26:24.916Z,4.84
2022-12-16T00:28:51.862Z,4.33
2022-12-16T00:31:19.299Z,4.99
2022-12-16T00:33:46.400Z,5.09
2022-12-16T00:36:13.662Z,5.11
2022-12-16T00:38:40.715Z,4.94
2022-12-16T00:41:08.236Z,4.64
2022-12-16T00:43:35.534Z,4.58
2022-12-16T00:46:03.044Z,5.00
2022-12-16T00:48:31.727Z,5.00
2022-12-16T00:50:58.650Z,4.69
2022-12-16T00:53:25.615Z,4.75
2022-12-16T00:56:01.538Z,4.67
2022-12-16T00:58:28.757Z,4.61
2022-12-16T01:00:55.829Z,4.61
2022-12-16T01:03:22.986Z,4.74
2022-12-16T01:05:50.068Z,4.57
2022-12-16T01:08:17.822Z,4.52
2022-12-16T01:10:51.649Z,4.93
2022-12-16T01:13:20.064Z,5.01
2022-12-16T01:15:47.372Z,5.14
2022-12-16T01:18:15.335Z,4.96
2022-12-16T01:20:42.395Z,5.20
2022-12-16T01:23:09.837Z,4.89
2022-12-16T01:25:36.996Z,5.12
2022-12-16T01:28:04.241Z,5.04
2022-12-16T01:30:31.552Z,4.73
2022-12-16T01:32:58.414Z,5.11
2022-12-16T01:38:13.350Z,4.76
2022-12-16T01:40:40.406Z,4.98
2022-12-16T01:43:13.969Z,5.14
2022-12-16T01:45:41.251Z,4.97
2022-12-16T01:48:19.180Z,5.08
2022-12-16T01:50:46.712Z,5.16
2022-12-16T01:53:14.266Z,5.19
2022-12-16T01:55:48.996Z,5.06
2022-12-16T01:58:23.945Z,5.15
2022-12-16T02:00:51.376Z,5.19
2022-12-16T02:03:18.969Z,5.24
2022-12-16T02:05:48.235Z,4.21
2022-12-16T02:08:16.234Z,5.28
2022-12-16T02:10:43.060Z,5.25
2022-12-16T02:13:26.562Z,5.22
2022-12-16T02:16:40.978Z,5.27
2022-12-16T02:19:41.466Z,5.29
2022-12-16T02:22:36.054Z,5.25
2022-12-16T02:25:09.129Z,5.04
2022-12-16T02:28:11.900Z,5.07
2022-12-16T02:30:55.797Z,5.04
2022-12-16T02:33:37.818Z,5.14
2022-12-16T02:36:08.090Z,5.16
2022-12-16T02:39:07.403Z,5.18
2022-12-16T02:41:53.289Z,5.10
2022-12-16T02:44:48.430Z,5.07
2022-12-16T02:47:15.864Z,5.08
2022-12-16T02:49:49.038Z,5.04
2022-12-16T02:52:19.918Z,4.99
2022-12-16T02:54:49.008Z,4.82
2022-12-16T02:57:28.294Z,4.91
2022-12-16T03:00:06.079Z,4.79
2022-12-16T03:02:36.538Z,5.00
2022-12-16T03:05:10.773Z,4.97
2022-12-16T03:07:41.466Z,4.75
2022-12-16T03:10:12.553Z,5.10
2022-12-16T03:12:43.697Z,4.85
2022-12-16T03:15:14.031Z,5.14
2022-12-16T03:17:42.309Z,5.24
2022-12-16T03:20:18.367Z,5.16
2022-12-16T03:22:48.540Z,5.24
2022-12-16T03:25:16.537Z,5.31
2022-12-16T03:27:57.684Z,5.35
2022-12-16T03:30:33.341Z,5.34
2022-12-16T03:33:05.383Z,5.22
2022-12-16T03:35:35.445Z,5.35
2022-12-16T03:38:06.534Z,5.24
2022-12-16T03:40:34.804Z,5.32
2022-12-16T03:43:03.416Z,5.27
2022-12-16T03:45:39.245Z,5.14
2022-12-16T03:48:11.632Z,4.96
2022-12-16T03:50:39.752Z,4.87
2022-12-16T03:53:07.717Z,4.99
2022-12-16T03:55:35.557Z,4.81
2022-12-16T03:58:02.648Z,4.97
2022-12-16T04:00:30.017Z,4.63
2022-12-16T04:02:57.573Z,5.02
2022-12-16T04:05:26.693Z,4.89
2022-12-16T04:08:00.238Z,5.07
2022-12-16T04:10:48.002Z,5.11
2022-12-16T04:13:34.097Z,5.06
2022-12-16T04:16:19.948Z,5.03
2022-12-16T04:19:06.720Z,4.64
2022-12-16T04:21:52.857Z,5.14
2022-12-16T04:24:24.673Z,5.22
2022-12-16T04:27:15.326Z,5.03
2022-12-16T04:30:02.427Z,5.32
2022-12-16T04:32:51.661Z,5.10
2022-12-16T04:35:37.242Z,5.35
2022-12-16T04:38:23.946Z,5.35
2022-12-16T04:41:09.653Z,5.31
2022-12-16T04:43:55.615Z,5.09
2022-12-16T04:46:41.505Z,5.21
2022-12-16T04:49:27.448Z,5.19
2022-12-16T04:52:13.081Z,5.21
2022-12-16T04:54:58.885Z,5.35
2022-12-16T04:57:44.792Z,5.34
2022-12-16T05:00:31.384Z,5.22
2022-12-16T05:03:17.027Z,5.03
2022-12-16T05:06:02.520Z,5.25
2022-12-16T05:08:48.458Z,5.14
2022-12-16T05:11:34.017Z,5.25
2022-12-16T05:14:19.496Z,5.29
2022-12-16T05:17:05.120Z,5.31
2022-12-16T05:19:50.859Z,5.30
2022-12-16T05:22:36.486Z,5.38
2022-12-16T05:25:23.127Z,4.95
2022-12-16T05:28:10.189Z,5.31
2022-12-16T05:30:56.400Z,5.36
2022-12-16T05:33:43.179Z,5.32
2022-12-16T05:36:28.713Z,5.33
2022-12-16T05:39:14.373Z,5.16
2022-12-16T05:41:59.746Z,5.12
2022-12-16T05:44:45.453Z,5.15
2022-12-16T05:47:31.212Z,5.21
2022-12-16T05:50:16.803Z,4.90
2022-12-16T05:53:13.893Z,5.22
2022-12-16T05:56:01.664Z,5.12
2022-12-16T05:58:48.189Z,5.27
2022-12-16T06:01:34.180Z,5.03
2022-12-16T06:04:19.841Z,5.20
2022-12-16T06:07:06.076Z,5.22
2022-12-16T06:09:56.636Z,5.29
2022-12-16T06:12:43.106Z,5.33
2022-12-16T06:15:29.870Z,5.31
2022-12-16T06:18:15.617Z,5.18
2022-12-16T06:21:02.156Z,5.24
2022-12-16T06:23:47.783Z,5.26
2022-12-16T06:26:33.555Z,5.24
2022-12-16T06:29:19.102Z,5.13
2022-12-16T06:32:05.031Z,5.32
2022-12-16T06:34:50.977Z,5.06
2022-12-16T06:37:36.584Z,5.03
2022-12-16T06:40:22.777Z,5.20
2022-12-16T06:43:08.364Z,5.10
2022-12-16T06:45:54.341Z,5.30
2022-12-16T06:48:39.687Z,5.32
2022-12-16T06:51:25.438Z,5.45
2022-12-16T06:54:11.467Z,5.43
2022-12-16T06:56:58.245Z,5.45
2022-12-16T06:59:43.916Z,5.56
2022-12-16T07:02:30.148Z,5.52
2022-12-16T07:05:15.806Z,5.57
2022-12-16T07:08:09.486Z,5.43
2022-12-16T07:11:00.343Z,5.48
2022-12-16T07:13:55.886Z,5.57
2022-12-16T07:16:41.700Z,5.55
2022-12-16T07:19:27.463Z,5.54
2022-12-16T07:22:13.163Z,5.61
2022-12-16T07:24:58.851Z,5.61
2022-12-16T07:27:44.739Z,5.75
2022-12-16T07:30:30.891Z,5.47
2022-12-16T07:33:16.650Z,5.40
2022-12-16T07:36:02.318Z,5.85
2022-12-16T07:38:48.109Z,5.70
2022-12-16T07:41:33.982Z,5.61
2022-12-16T07:44:23.195Z,6.02
2022-12-16T07:47:08.956Z,5.78
2022-12-16T07:49:55.435Z,5.79
2022-12-16T07:52:41.907Z,5.89
2022-12-16T07:55:28.060Z,5.72
2022-12-16T07:58:13.811Z,5.99
2022-12-16T08:01:06.287Z,6.19
2022-12-16T08:03:54.660Z,5.84
2022-12-16T08:06:42.255Z,6.06
2022-12-16T08:09:28.024Z,6.06
2022-12-16T08:12:18.376Z,5.86
2022-12-16T08:15:03.771Z,5.49
2022-12-16T08:17:49.376Z,6.32
2022-12-16T08:20:34.937Z,6.36
2022-12-16T08:23:20.942Z,6.05
2022-12-16T08:26:06.580Z,6.42
2022-12-16T08:28:52.678Z,6.15
2022-12-16T08:31:38.389Z,6.09
2022-12-16T08:34:24.437Z,6.41
2022-12-16T08:37:09.978Z,6.42
2022-12-16T08:40:18.043Z,6.00
2022-12-16T08:43:01.490Z,6.14
2022-12-16T08:45:47.350Z,6.75
2022-12-16T08:48:33.211Z,6.78
2022-12-16T08:51:26.390Z,6.74
2022-12-16T08:54:12.040Z,6.96
2022-12-16T08:56:57.843Z,6.77
2022-12-16T08:59:44.567Z,6.04
2022-12-16T09:02:31.281Z,7.16
2022-12-16T09:05:17.130Z,6.89
2022-12-16T09:08:02.895Z,6.95
2022-12-16T09:10:48.543Z,6.75
2022-12-16T09:13:35.298Z,6.65
2022-12-16T09:16:21.793Z,7.14
2022-12-16T09:19:07.397Z,7.21
2022-12-16T09:21:54.828Z,6.92
2022-12-16T09:24:40.827Z,7.29
2022-12-16T09:27:26.259Z,7.34
2022-12-16T09:30:11.815Z,7.57
2022-12-16T09:33:02.531Z,7.61
2022-12-16T09:35:48.582Z,7.63
2022-12-16T09:38:35.981Z,7.52
2022-12-16T09:41:46.725Z,7.63
2022-12-16T09:44:49.248Z,7.56
2022-12-16T09:47:41.231Z,7.54
2022-12-16T09:50:38.329Z,7.55
2022-12-16T09:53:28.392Z,7.30
2022-12-16T09:56:15.450Z,7.51
2022-12-16T09:59:18.543Z,7.49
2022-12-16T10:02:04.748Z,7.50
2022-12-16T10:04:51.051Z,7.91
2022-12-16T10:07:42.135Z,7.77
2022-12-16T10:10:36.403Z,8.07
2022-12-16T10:13:49.699Z,8.15
2022-12-16T10:16:38.519Z,8.20
2022-12-16T10:19:36.043Z,8.30
2022-12-16T10:22:46.531Z,8.41
2022-12-16T10:25:35.361Z,8.57
2022-12-16T10:28:37.487Z,8.73
2022-12-16T10:31:32.250Z,8.57
2022-12-16T10:34:17.767Z,8.82
2022-12-16T10:37:11.681Z,8.78
2022-12-16T10:40:07.850Z,8.91
2022-12-16T10:43:00.366Z,9.20
2022-12-16T10:45:53.744Z,9.12
2022-12-16T10:48:56.735Z,9.46
2022-12-16T10:51:47.049Z,9.62
2022-12-16T10:54:38.744Z,9.81
2022-12-16T10:57:33.783Z,9.96
2022-12-16T11:00:32.856Z,10.07
2022-12-16T11:03:42.797Z,10.06
2022-12-16T11:06:29.671Z,10.13
2022-12-16T11:09:15.340Z,10.28
2022-12-16T11:12:01.452Z,10.28
2022-12-16T11:15:12.708Z,10.14
2022-12-16T11:17:56.071Z,9.99
2022-12-16T11:20:44.259Z,10.16
2022-12-16T11:23:45.160Z,10.54
2022-12-16T11:26:38.448Z,10.54
2022-12-16T11:29:25.620Z,10.87
2022-12-16T11:32:42.661Z,10.95
2022-12-16T11:35:37.739Z,11.03
2022-12-16T11:38:29.684Z,11.20
2022-12-16T11:41:16.847Z,11.20
2022-12-16T11:44:05.992Z,11.43
2022-12-16T11:46:51.920Z,11.53
2022-12-16T11:49:51.967Z,11.31
2022-12-16T11:52:40.569Z,11.55
2022-12-16T11:59:01.270Z,11.84
2022-12-16T12:02:05.963Z,11.78
2022-12-16T12:04:51.452Z,11.83
2022-12-16T12:07:45.809Z,12.14
2022-12-16T12:10:38.174Z,12.22
2022-12-16T12:13:58.877Z,12.11
2022-12-16T12:16:59.313Z,12.36
2022-12-16T12:20:06.390Z,12.39
2022-12-16T12:22:57.514Z,12.39
2022-12-16T12:26:02.244Z,12.52
2022-12-16T12:28:54.269Z,12.52
2022-12-16T12:32:14.940Z,12.60
2022-12-16T12:35:19.850Z,12.61
2022-12-16T12:38:11.028Z,12.58
2022-12-16T12:41:03.829Z,12.78
2022-12-16T12:44:07.164Z,12.76
2022-12-16T12:47:16.653Z,12.91
2022-12-16T12:50:14.136Z,12.87
2022-12-16T12:53:43.061Z,13.09
2022-12-16T12:57:16.158Z,13.15
2022-12-16T13:00:37.181Z,13.20
2022-12-16T13:03:55.973Z,13.20
2022-12-16T13:06:42.699Z,13.22
2022-12-16T13:09:48.297Z,13.40
2022-12-16T13:12:34.282Z,13.43
2022-12-16T13:15:25.639Z,13.47
2022-12-16T13:18:20.460Z,13.51
2022-12-16T13:21:06.571Z,13.56
2022-12-16T13:23:57.780Z,13.41
2022-12-16T13:26:45.994Z,13.39
2022-12-16T13:29:46.895Z,13.44
2022-12-16T13:32:38.521Z,13.51
2022-12-16T13:35:27.122Z,13.57
2022-12-16T13:38:14.377Z,13.57
2022-12-16T13:41:17.197Z,13.39
2022-12-16T13:44:21.790Z,13.36
2022-12-16T13:47:13.350Z,13.39
2022-12-16T13:50:05.741Z,13.08
2022-12-16T13:53:07.351Z,13.49
2022-12-16T13:56:05.121Z,13.46
2022-12-16T13:59:12.987Z,13.20
2022-12-16T14:02:31.274Z,13.29
2022-12-16T14:05:17.575Z,12.75
2022-12-16T14:08:03.907Z,13.09
2022-12-16T14:10:53.300Z,13.18
2022-12-16T14:13:47.601Z,13.26
2022-12-16T14:17:02.642Z,13.10
2022-12-16T14:19:53.625Z,13.14
2022-12-16T14:22:54.811Z,13.17
2022-12-16T14:25:42.138Z,12.94
2022-12-16T14:28:55.017Z,12.92
2022-12-16T14:31:49.130Z,12.76
2022-12-16T14:35:04.619Z,12.90
2022-12-16T14:37:55.947Z,12.80
2022-12-16T14:40:43.241Z,12.76
2022-12-16T14:43:35.524Z,12.44
2022-12-16T14:46:22.212Z,12.43
2022-12-16T14:49:09.570Z,12.32
2022-12-16T14:52:06.400Z,12.42
2022-12-16T14:54:57.990Z,12.34
2022-12-16T14:57:46.117Z,12.20
2022-12-16T15:00:42.471Z,11.82
2022-12-16T15:03:48.355Z,12.23
2022-12-16T15:07:02.043Z,12.08
2022-12-16T15:09:55.893Z,12.16
2022-12-16T15:12:48.187Z,12.04
2022-12-16T15:15:49.743Z,11.90
2022-12-16T15:18:40.554Z,11.94
2022-12-16T15:21:27.170Z,11.67
2022-12-16T15:24:13.265Z,11.56
2022-12-16T15:26:59.341Z,11.42
2022-12-16T15:29:53.309Z,11.72
2022-12-16T15:32:44.684Z,11.73
2022-12-16T15:35:50.030Z,11.67
2022-12-16T15:38:54.310Z,11.26
2022-12-16T15:41:50.133Z,10.96
2022-12-16T15:44:41.734Z,11.45
2022-12-16T15:47:53.230Z,11.48
2022-12-16T15:50:47.129Z,11.40
2022-12-16T15:53:55.179Z,11.28
2022-12-16T15:56:46.480Z,11.48
2022-12-16T15:59:50.342Z,11.20
2022-12-16T16:02:41.316Z,11.11
2022-12-16T16:05:39.719Z,11.45
2022-12-16T16:08:25.833Z,11.58
2022-12-16T16:11:11.732Z,11.18
2022-12-16T16:14:02.924Z,11.34
2022-12-16T16:16:51.880Z,11.17
2022-12-16T16:19:43.104Z,11.48
2022-12-16T16:22:34.203Z,11.42
2022-12-16T16:25:20.399Z,11.18
2022-12-16T16:28:06.246Z,11.43
2022-12-16T16:30:51.894Z,11.10
2022-12-16T16:33:37.791Z,11.15
2022-12-16T16:36:34.356Z,11.18
2022-12-16T16:39:20.398Z,11.11
2022-12-16T16:42:06.069Z,10.77
2022-12-16T16:44:51.641Z,10.92
2022-12-16T16:47:37.920Z,10.92
2022-12-16T16:50:25.503Z,10.85
2022-12-16T16:53:11.676Z,10.89
2022-12-16T16:55:57.983Z,10.42
2022-12-16T16:58:50.286Z,10.51
2022-12-16T17:01:37.350Z,10.72
2022-12-16T17:04:23.405Z,10.65
2022-12-16T17:07:09.039Z,10.60
2022-12-16T17:12:53.906Z,10.53
2022-12-16T17:15:54.412Z,10.46
2022-12-16T17:18:46.589Z,9.46
2022-12-16T17:21:33.253Z,10.30
2022-12-16T17:24:19.150Z,9.66
2022-12-16T17:27:09.118Z,9.68
2022-12-16T17:29:55.906Z,9.75
2022-12-16T17:32:49.087Z,10.05
2022-12-16T17:35:36.175Z,10.21
2022-12-16T17:38:22.101Z,10.09
2022-12-16T17:41:11.082Z,9.67
2022-12-16T17:43:58.765Z,9.89
2022-12-16T17:46:44.229Z,9.93
2022-12-16T17:49:30.291Z,9.86
2022-12-16T17:52:17.150Z,9.30
2022-12-16T17:55:02.721Z,9.38
2022-12-16T17:57:49.013Z,9.73
2022-12-16T18:00:35.420Z,9.74
2022-12-16T18:03:22.466Z,9.55
2022-12-16T18:06:15.542Z,9.15
2022-12-16T18:09:01.156Z,9.70
2022-12-16T18:11:46.903Z,9.67
2022-12-16T18:14:32.485Z,9.62
2022-12-16T18:17:18.216Z,9.60
2022-12-16T18:20:04.095Z,9.18
2022-12-16T18:22:50.102Z,9.40
2022-12-16T18:25:35.949Z,9.59
2022-12-16T18:28:22.330Z,9.37
2022-12-16T18:31:07.964Z,9.25
2022-12-16T18:33:53.653Z,8.84
2022-12-16T18:36:39.487Z,9.46
2022-12-16T18:39:25.013Z,9.35
2022-12-16T18:42:10.910Z,9.05
2022-12-16T18:45:01.019Z,9.14
2022-12-16T18:47:49.402Z,9.20
2022-12-16T18:50:37.974Z,9.22
2022-12-16T18:53:27.767Z,9.31
2022-12-16T18:56:21.176Z,9.36
2022-12-16T18:59:07.041Z,9.14
2022-12-16T19:01:57.422Z,9.13
2022-12-16T19:04:43.617Z,9.29
2022-12-16T19:07:33.378Z,8.94
2022-12-16T19:10:19.623Z,8.94
2022-12-16T19:13:05.048Z,9.02
2022-12-16T19:15:51.262Z,8.75
2022-12-16T19:18:37.427Z,8.57
2022-12-16T19:21:23.433Z,8.84
2022-12-16T19:24:09.374Z,8.49
2022-12-16T19:26:56.558Z,8.86
2022-12-16T19:29:43.061Z,8.66
2022-12-16T19:32:28.971Z,8.87
2022-12-16T19:35:14.661Z,8.95
2022-12-16T19:38:00.692Z,8.78
2022-12-16T19:41:12.575Z,8.90
2022-12-16T19:44:03.626Z,8.73
2022-12-16T19:46:51.725Z,8.28
2022-12-16T19:49:43.786Z,8.09
2022-12-16T19:52:30.120Z,8.60
2022-12-16T19:58:20.892Z,8.59
2022-12-16T20:01:06.873Z,8.03
2022-12-16T20:03:55.251Z,8.59
2022-12-16T20:06:42.394Z,8.45
2022-12-16T20:09:28.103Z,8.45
2022-12-16T20:12:16.224Z,8.41
2022-12-16T20:15:01.468Z,8.58
2022-12-16T20:17:50.458Z,8.25
2022-12-16T20:20:38.004Z,8.37
2022-12-16T20:23:23.677Z,8.12
2022-12-16T20:26:17.423Z,8.26
2022-12-16T20:29:03.671Z,8.19
2022-12-16T20:31:52.521Z,8.37
2022-12-16T20:34:41.454Z,8.40
2022-12-16T20:37:27.122Z,8.23
2022-12-16T20:40:13.470Z,8.10
2022-12-16T20:42:59.036Z,8.25
2022-12-16T20:45:44.680Z,7.62
2022-12-16T20:48:35.138Z,7.69
2022-12-16T20:51:26.546Z,8.27
2022-12-16T20:54:13.196Z,8.06
2022-12-16T20:56:59.657Z,6.98
2022-12-16T20:59:45.305Z,7.42
2022-12-16T21:02:34.103Z,8.14
2022-12-16T21:05:21.276Z,7.17
2022-12-16T21:08:06.843Z,7.12
2022-12-16T21:10:52.451Z,7.20
2022-12-16T21:13:41.737Z,8.07
2022-12-16T21:16:30.329Z,7.76
2022-12-16T21:19:16.387Z,7.78
2022-12-16T21:22:02.063Z,7.99
2022-12-16T21:24:47.542Z,7.87
2022-12-16T21:27:33.193Z,7.93
2022-12-16T21:30:18.710Z,7.78
2022-12-16T21:33:04.822Z,7.77
2022-12-16T21:35:50.864Z,7.94
2022-12-16T21:38:37.948Z,7.89
2022-12-16T21:41:24.098Z,7.78
2022-12-16T21:44:10.648Z,7.73
2022-12-16T21:46:56.046Z,7.64
2022-12-16T21:49:42.298Z,7.68
2022-12-16T21:52:27.913Z,7.79
2022-12-16T21:55:14.372Z,7.33
2022-12-16T21:58:05.578Z,7.52
2022-12-16T22:00:58.860Z,7.32
2022-12-16T22:03:52.299Z,7.69
2022-12-16T22:06:38.437Z,7.52
2022-12-16T22:09:24.090Z,7.46
2022-12-16T22:12:10.632Z,7.30
2022-12-16T22:14:56.588Z,7.13
2022-12-16T22:18:02.343Z,7.37
2022-12-16T22:20:47.775Z,7.31
2022-12-16T22:23:34.225Z,7.29
2022-12-16T22:26:20.810Z,7.19
2022-12-16T22:29:06.463Z,7.24
2022-12-16T22:31:52.263Z,7.12
2022-12-16T22:34:38.048Z,7.34
2022-12-16T22:36:20.429Z,8.61
2022-12-16T22:37:23.819Z,7.38
2022-12-16T22:40:09.125Z,7.17
2022-12-16T22:42:56.300Z,6.95
2022-12-16T22:45:42.104Z,6.99
2022-12-16T22:48:31.440Z,6.40
2022-12-16T22:51:16.855Z,6.79
2022-12-16T22:54:06.910Z,6.82
2022-12-16T22:56:52.669Z,7.28
2022-12-16T22:59:42.142Z,7.24
2022-12-16T23:02:28.307Z,7.12
2022-12-16T23:05:13.796Z,7.12
2022-12-16T23:07:59.445Z,7.20
2022-12-16T23:10:45.642Z,7.18
2022-12-16T23:13:32.219Z,7.11
2022-12-16T23:16:17.712Z,7.21
2022-12-16T23:19:03.563Z,7.09
2022-12-16T23:21:49.031Z,7.22
2022-12-16T23:24:34.661Z,7.33
2022-12-16T23:27:20.379Z,7.23
2022-12-16T23:30:06.006Z,7.23
2022-12-16T23:32:51.353Z,7.10
2022-12-16T23:35:39.148Z,6.67
2022-12-16T23:38:25.593Z,6.92
2022-12-16T23:41:15.564Z,6.71
2022-12-16T23:44:01.632Z,7.02
2022-12-16T23:46:47.899Z,6.59
2022-12-16T23:49:33.697Z,6.96
2022-12-16T23:52:19.547Z,6.99
2022-12-16T23:55:05.058Z,6.92
2022-12-16T23:57:50.624Z,6.59
